• Join FlightAware (Why Join?)
  • Login
  • US Flag 
10:40PM EST


 

Airport Tracker/Info


-or-


 

Live Flight TrackerFlight Track Log ✈ KAP550 ✈ 14-May-2013 ✈ KMSS - KALB

Flight Track Log - Related Links

Times and Time Zones

All times are in EDT time to prevent confusion due to time zone crossing. See the KAP550 flight status page for this flight to view local times or setup timezone preferences in your user account.

Time Position Orientation Groundspeed Altitude Reporting Facility
EDT Latitude Longitude Course Direction KTS MPH feet Rate Location/Type
01:12PM 44.7831 -74.8003 160° South 151 174 6,400  Level Boston Center
01:13PM 44.7481 -74.7842 162° South 145 167 7,700 1,320 Climbing Boston Center
01:14PM 44.7086 -74.7708 166° South 140 161 9,100 1,200 Climbing Boston Center
01:15PM 44.6694 -74.7489 158° South 146 168 10,200 960 Climbing Boston Center
01:16PM 44.6283 -74.7269 159° South 151 174 11,100 420 Climbing Boston Center
01:17PM 44.6979 -74.7239 160° South  Level FlightAware Approximate
01:17PM 44.5786 -74.7017 160° South 164 189 11,100  Level Boston Center
01:18PM 44.5272 -74.6764 161° South 186 214 11,100  Level Boston Center
01:19PM 44.4756 -74.6453 157° South 196 226 11,100  Level Boston Center
01:20PM 44.4239 -74.6231 163° South 196 226 11,100  Level Boston Center
01:21PM 44.3703 -74.5950 159° South 201 231 11,100  Level Boston Center
01:22PM 44.3186 -74.5700 161° South 206 237 11,100 -60 Level Boston Center
01:23PM 44.2669 -74.5447 161° South 206 237 11,000 -60 Descending Boston Center
01:24PM 44.2133 -74.5197 162° South 206 237 11,000  Level Boston Center
01:25PM 44.1617 -74.4919 159° South 206 237 11,100  Climbing Boston Center
01:26PM 44.1081 -74.4669 161° South 206 237 11,000 -60 Descending Boston Center
01:27PM 44.0564 -74.4392 159° South 206 237 11,000  Level Boston Center
01:28PM 44.0028 -74.4144 162° South 206 237 11,000  Level Boston Center
01:29PM 43.9489 -74.3867 160° South 206 237 11,000  Level Boston Center
01:30PM 43.8972 -74.3619 161° South 206 237 11,100  Climbing Boston Center
01:31PM 43.8436 -74.3372 162° South 206 237 11,100  Level Boston Center
01:32PM 43.7919 -74.3097 159° South 206 237 11,100  Level Boston Center
01:33PM 43.7403 -74.2850 161° South 206 237 11,100  Level Boston Center
01:34PM 43.6864 -74.2575 160° South 206 237 11,100  Level Boston Center
01:35PM 43.6347 -74.2331 161° South 206 237 11,100  Level Boston Center
01:36PM 43.5808 -74.2086 162° South 206 237 11,100 -300 Level Boston Center
01:37PM 43.5189 -74.1781 160° South 206 237 10,500 -600 Descending Boston Center
01:38PM 43.4672 -74.1508 159° South 206 237 10,000 -480 Descending Boston Center
01:39PM 43.4092 -74.1233 161° South 194 223 9,500 -600 Descending Boston Center
01:40PM 43.3594 -74.0992 161° South 206 237 8,800 -720 Descending Boston Center
01:41PM 43.3078 -74.0750 161° South 194 223 8,100 -660 Descending Boston Center
01:42PM 43.2603 -74.0481 158° South 201 231 7,500 -600 Descending Boston Center
01:43PM 43.2044 -74.0208 160° South 201 231 7,000 -480 Descending Boston Center
01:44PM 43.1589 -73.9997 161° South 190 219 6,600 -540 Descending Boston Center
01:45PM 43.1028 -73.9728 161° South 190 219 6,000 -600 Descending Boston Center
01:46PM 43.0594 -73.9547 163° South 190 219 5,400 -780 Descending Boston Center
01:47PM 43.0072 -73.9450 172° South 190 219 4,600 -720 Descending Boston Center
01:48PM 42.9556 -73.9322 170° South 188 216 4,100 -300 Descending Boston Center
01:49PM 42.9056 -73.9197 170° South 183 211 4,100  Level Boston Center
01:50PM 42.8703 -73.9103 169° South 178 205 4,100  Level Boston Center
01:51PM 42.8225 -73.9008 172° South 172 198 4,100 -240 Level Boston Center
01:52PM 42.7828 -73.8969 176° South 124 143 3,700 -480 Descending Boston Center
01:53PM 42.7539 -73.8933 175° South 148 170 3,200 -480 Descending Boston Center
01:54PM 42.7081 -73.8925 179° South 138 159 2,900 -780 Descending Boston Center
01:55PM 42.7067 -73.8331 92° East 126 145 1,700 -1,260 Descending Boston Center
01:56PM 42.7319 -73.8081 36° Northeast 139 160 400 -1,320 Descending Boston Center
01:58PM 42.7491 -73.8020 77° East  Level Estimated
02:05PM 42.7491 -73.8020 170° South  Level Estimated
02:06PM 42.7491 -73.8020 170° South  Level Estimated